Time;durP1;ratioP1;P1;durP2;ratioP2;P2;SDS_P1;SDS_P2;PMS_P1;PMS_P2;Temp;Humidity;BMP_temperature;BMP_pressure;BME280_temperature;BME280_humidity;BME280_pressure;Samples;Min_cycle;Max_cycle;Signal;HPM_P1;HPM_P2
2022/12/10 00:01:32;;;;;;;;;;;;;;;-3.62;100.00;100815.25;4998012;28;20026;-62
2022/12/10 00:03:58;;;;;;;1.20;1.20;;;;;;;-3.71;100.00;100817.78;5007454;28;19920;-62
2022/12/10 00:06:26;;;;;;;1.20;1.20;;;;;;;-3.71;100.00;100815.09;5006686;28;20084;-62
2022/12/10 00:08:52;;;;;;;1.20;1.20;;;;;;;-3.71;100.00;100820.47;4997709;28;20015;-62
2022/12/10 00:11:19;;;;;;;1.20;1.20;;;;;;;-3.75;100.00;100818.19;5005618;28;20084;-62
2022/12/10 00:13:45;;;;;;;1.10;1.10;;;;;;;-3.76;100.00;100816.50;5002119;28;20322;-62
2022/12/10 00:16:13;;;;;;;1.20;1.20;;;;;;;-3.77;100.00;100815.66;5005753;28;20034;-62
2022/12/10 00:18:38;;;;;;;1.20;1.20;;;;;;;-3.69;100.00;100814.97;5007354;28;20026;-62
2022/12/10 00:21:06;;;;;;;1.20;1.20;;;;;;;-3.59;100.00;100810.47;5006048;28;20038;-62
2022/12/10 00:23:32;;;;;;;1.10;1.10;;;;;;;-3.49;100.00;100823.91;5007627;28;20042;-62
2022/12/10 00:26:14;;;;;;;1.10;1.10;;;;;;;-3.40;100.00;100823.91;5007737;28;20022;-62
2022/12/10 00:28:41;;;;;;;1.10;1.10;;;;;;;-3.34;100.00;100827.84;5006452;28;20088;-62
2022/12/10 00:31:09;;;;;;;1.10;1.10;;;;;;;-3.30;100.00;100829.25;5016921;28;20030;-61
2022/12/10 00:33:35;;;;;;;;;;;;;;;-3.22;100.00;100820.50;5007276;28;20025;-62
2022/12/10 00:36:31;;;;;;;1.10;1.10;;;;;;;-3.24;100.00;100812.59;5006942;28;19917;-62
2022/12/10 00:38:56;;;;;;;1.20;1.20;;;;;;;-3.27;100.00;100828.97;4979954;28;20057;-62
2022/12/10 00:41:22;;;;;;;1.20;1.20;;;;;;;-3.26;100.00;100825.28;5004887;28;20030;-62
2022/12/10 00:43:47;;;;;;;1.17;1.17;;;;;;;-3.23;100.00;100822.34;5008492;28;20026;-62
2022/12/10 00:46:15;;;;;;;1.20;1.20;;;;;;;-3.22;100.00;100832.09;5004408;28;20062;-62
2022/12/10 00:48:41;;;;;;;1.20;1.20;;;;;;;-3.21;100.00;100830.25;5007493;28;20030;-62
2022/12/10 00:51:10;;;;;;;1.17;1.17;;;;;;;-3.22;100.00;100833.91;5007125;28;20296;-62
2022/12/10 00:53:37;;;;;;;1.20;1.20;;;;;;;-3.22;100.00;100820.50;5007542;28;20053;-62
2022/12/10 00:56:03;;;;;;;1.20;1.20;;;;;;;-3.24;100.00;100809.91;5006353;28;20022;-62
2022/12/10 00:58:30;;;;;;;1.10;1.10;;;;;;;-3.26;100.00;100814.53;5011187;28;20533;-62
2022/12/10 01:01:12;;;;;;;1.20;1.20;;;;;;;-3.27;100.00;100810.16;5008596;28;20034;-61
2022/12/10 01:03:39;;;;;;;1.20;1.20;;;;;;;-3.32;100.00;100803.53;5011208;28;20029;-61
2022/12/10 01:06:26;;;;;;;1.20;1.20;;;;;;;-3.34;100.00;100805.53;5010169;28;20040;-62
2022/12/10 01:08:53;;;;;;;1.20;1.20;;;;;;;-3.40;100.00;100806.91;5009841;28;20037;-62
2022/12/10 01:11:20;;;;;;;1.20;1.20;;;;;;;-3.46;100.00;100813.69;5010302;28;20083;-61
2022/12/10 01:13:47;;;;;;;1.17;1.17;;;;;;;-3.48;100.00;100815.69;5010395;28;20125;-63
2022/12/10 01:16:16;;;;;;;1.20;1.20;;;;;;;-3.50;100.00;100817.66;5009768;28;20033;-61
2022/12/10 01:18:41;;;;;;;1.15;1.15;;;;;;;-3.51;100.00;100820.50;5011109;28;20030;-62
2022/12/10 01:21:10;;;;;;;1.20;1.20;;;;;;;-3.55;100.00;100819.91;5007752;28;20350;-62
2022/12/10 01:23:37;;;;;;;1.20;1.20;;;;;;;-3.57;100.00;100824.59;5010918;28;20030;-62
2022/12/10 01:26:07;;;;;;;1.20;1.20;;;;;;;-3.60;100.00;100818.63;5009517;28;20036;-62
2022/12/10 01:28:35;;;;;;;1.20;1.20;;;;;;;-3.59;100.00;100825.72;5011274;28;20120;-62
2022/12/10 01:31:03;;;;;;;1.20;1.20;;;;;;;-3.57;100.00;100815.69;5007790;28;20030;-62
2022/12/10 01:33:28;;;;;;;1.20;1.20;;;;;;;-3.53;100.00;100817.09;5009009;28;20026;-62
2022/12/10 01:35:54;;;;;;;1.30;1.30;;;;;;;-3.50;100.00;100812.28;5009460;28;20030;-62
2022/12/10 01:38:19;;;;;;;1.30;1.30;;;;;;;-3.47;100.00;100813.84;4991943;28;20101;-62
2022/12/10 01:40:44;;;;;;;1.30;1.30;;;;;;;-3.48;100.00;100814.84;5005505;28;20030;-62
2022/12/10 01:43:14;;;;;;;1.25;1.25;;;;;;;-3.46;100.00;100820.91;5008525;28;20473;-62
2022/12/10 01:45:39;;;;;;;1.30;1.30;;;;;;;-3.41;100.00;100829.38;5008757;28;20072;-62
2022/12/10 01:48:04;;;;;;;1.20;1.20;;;;;;;-3.36;100.00;100828.97;5008917;28;20909;-62
2022/12/10 01:50:30;;;;;;;1.27;1.27;;;;;;;-3.33;100.00;100821.50;5008692;28;20036;-62
2022/12/10 01:52:55;;;;;;;1.20;1.20;;;;;;;-3.27;100.00;100833.50;5009888;28;20101;-62
2022/12/10 01:55:44;;;;;;;1.30;1.30;;;;;;;-3.20;100.00;100838.16;4987351;28;20396;-63
2022/12/10 01:58:12;;;;;;;1.20;1.20;;;;;;;-3.17;100.00;100828.97;5009458;28;20033;-62
2022/12/10 02:00:44;;;;;;;1.03;1.03;;;;;;;-3.14;100.00;100823.31;5007813;28;20515;-62
2022/12/10 02:03:24;;;;;;;1.20;1.20;;;;;;;-3.10;100.00;100829.25;5009326;28;20029;-62
2022/12/10 02:05:59;;;;;;;1.20;1.20;;;;;;;-3.07;100.00;100831.66;5010010;28;20538;-62
2022/12/10 02:08:30;;;;;;;1.30;1.30;;;;;;;-3.03;100.00;100831.22;5009804;28;20050;-62
2022/12/10 02:11:13;;;;;;;1.30;1.30;;;;;;;-2.97;100.00;100840.56;5008366;28;20676;-62
2022/12/10 02:13:41;;;;;;;1.30;1.30;;;;;;;-2.91;100.00;100845.34;5009050;28;20088;-63
2022/12/10 02:16:21;;;;;;;1.20;1.20;;;;;;;-2.87;100.00;100839.53;5007811;28;20037;-62
2022/12/10 02:18:53;;;;;;;1.20;1.20;;;;;;;-2.83;100.00;100839.25;5008856;28;20030;-62
2022/12/10 02:21:24;;;;;;;1.20;1.20;;;;;;;-2.80;100.00;100831.75;5005263;28;20478;-62
2022/12/10 02:23:56;;;;;;;1.20;1.20;;;;;;;-2.78;100.00;100829.78;5009973;28;20131;-62
2022/12/10 02:26:35;;;;;;;1.30;1.30;;;;;;;-2.75;100.00;100823.25;5008422;28;20022;-63
2022/12/10 02:29:12;;;;;;;1.25;1.20;;;;;;;-2.75;100.00;100829.47;5006654;28;20469;-62
2022/12/10 02:31:42;;;;;;;1.20;1.20;;;;;;;-2.74;100.00;100833.84;5009314;28;20029;-62
2022/12/10 02:34:09;;;;;;;1.20;1.20;;;;;;;-2.75;100.00;100834.84;5009726;28;20404;-62
2022/12/10 02:36:38;;;;;;;1.20;1.20;;;;;;;-2.75;100.00;100834.00;5008411;28;20077;-62
2022/12/10 02:39:07;;;;;;;1.20;1.20;;;;;;;-2.75;100.00;100829.47;5008363;28;20038;-62
2022/12/10 02:41:37;;;;;;;1.17;1.17;;;;;;;-2.76;100.00;100833.16;5007327;28;20054;-62
2022/12/10 02:44:07;;;;;;;1.20;1.20;;;;;;;-2.78;100.00;100829.78;5006904;28;20034;-62
2022/12/10 02:46:34;;;;;;;1.20;1.20;;;;;;;-2.79;100.00;100835.28;5008267;28;20033;-62
2022/12/10 02:49:03;;;;;;;1.20;1.20;;;;;;;-2.80;100.00;100836.28;5007507;28;20046;-62
2022/12/10 02:51:28;;;;;;;1.30;1.30;;;;;;;-2.85;100.00;100839.38;5009725;28;20018;-62
2022/12/10 02:54:02;;;;;;;1.27;1.27;;;;;;;-2.84;100.00;100846.44;5007313;28;20079;-62
2022/12/10 02:56:34;;;;;;;1.20;1.20;;;;;;;-2.83;100.00;100842.78;5007566;28;20026;-61
2022/12/10 02:59:32;;;;;;;1.20;1.20;;;;;;;-2.88;100.00;100840.53;5007199;28;20061;-62
2022/12/10 03:02:48;;;;;;;1.20;1.20;;;;;;;-2.82;100.00;100846.31;4955109;28;20445;-62
2022/12/10 03:05:33;;;;;;;1.20;1.20;;;;;;;-2.88;100.00;100853.13;4954804;28;20149;-62
2022/12/10 03:08:07;;;;;;;1.25;1.25;;;;;;;-2.92;100.00;100854.41;5005386;28;20053;-62
2022/12/10 03:10:39;;;;;;;1.30;1.30;;;;;;;-2.94;100.00;100842.94;4990999;28;20493;-62
2022/12/10 03:13:09;;;;;;;1.20;1.20;;;;;;;-2.94;100.00;100840.25;4998039;28;20473;-62
2022/12/10 03:15:39;;;;;;;1.20;1.20;;;;;;;-2.98;100.00;100844.22;5008290;28;20022;-62
2022/12/10 03:18:07;;;;;;;1.42;1.33;;;;;;;-2.98;100.00;100846.91;5005780;28;20157;-61
2022/12/10 03:20:37;;;;;;;1.35;1.25;;;;;;;-2.98;100.00;100844.22;5008785;28;20091;-62
2022/12/10 03:23:04;;;;;;;1.88;1.30;;;;;;;-3.00;100.00;100844.34;4990602;28;20469;-62
2022/12/10 03:25:30;;;;;;;1.80;1.35;;;;;;;-3.01;100.00;100841.81;5007613;28;20428;-62
2022/12/10 03:27:58;;;;;;;2.15;1.40;;;;;;;-3.01;100.00;100844.50;5007780;28;20026;-62
2022/12/10 03:30:24;;;;;;;1.70;1.40;;;;;;;-3.01;100.00;100839.13;5008273;28;20025;-62
2022/12/10 03:32:50;;;;;;;1.40;1.30;;;;;;;-3.00;100.00;100838.13;5008481;28;20052;-62
2022/12/10 03:35:18;;;;;;;1.30;1.30;;;;;;;-2.98;100.00;100842.41;5007830;28;20040;-62
2022/12/10 03:37:44;;;;;;;1.20;1.20;;;;;;;-2.96;100.00;100842.25;5007853;28;20164;-62
2022/12/10 03:40:11;;;;;;;1.40;1.30;;;;;;;-2.95;100.00;100844.78;5007896;28;20314;-62
2022/12/10 03:42:37;;;;;;;1.60;1.50;;;;;;;-2.95;100.00;100850.16;5009151;28;20026;-62
2022/12/10 03:45:03;;;;;;;1.30;1.30;;;;;;;-2.93;100.00;100847.34;5006201;28;20355;-62
2022/12/10 03:47:28;;;;;;;1.45;1.38;;;;;;;-2.91;100.00;100848.03;5007343;28;20026;-62
2022/12/10 03:49:53;;;;;;;1.30;1.30;;;;;;;-2.88;100.00;100848.59;5007645;28;20501;-62
2022/12/10 03:52:19;;;;;;;1.50;1.40;;;;;;;-2.86;100.00;100848.44;5008816;28;20084;-62
2022/12/10 03:54:44;;;;;;;1.30;1.30;;;;;;;-2.84;100.00;100859.03;5008465;28;20381;-62
2022/12/10 03:57:09;;;;;;;1.30;1.30;;;;;;;-2.83;100.00;100853.53;5006707;28;20038;-61
2022/12/10 03:59:35;;;;;;;1.30;1.20;;;;;;;-2.82;100.00;100865.16;5006454;28;20065;-62
2022/12/10 04:02:00;;;;;;;1.45;1.40;;;;;;;-2.84;100.00;100857.19;5007276;28;20048;-62
2022/12/10 04:04:25;;;;;;;1.40;1.40;;;;;;;-2.81;100.00;100856.09;5008023;28;20029;-62
2022/12/10 04:06:51;;;;;;;1.63;1.52;;;;;;;-2.80;100.00;100860.47;5007929;28;20028;-63
2022/12/10 04:09:16;;;;;;;1.42;1.42;;;;;;;-2.79;100.00;100859.47;5008891;28;20083;-62
2022/12/10 04:11:43;;;;;;;1.50;1.40;;;;;;;-2.76;100.00;100860.03;5007443;28;20087;-62
2022/12/10 04:16:56;;;;;;;3.10;1.50;;;;;;;-2.74;100.00;100858.03;5006900;28;20049;-62
2022/12/10 04:19:22;;;;;;;2.33;1.65;;;;;;;-2.78;100.00;100862.03;5007160;28;20037;-63
2022/12/10 04:27:21;;;;;;;1.52;1.42;;;;;;;-2.80;100.00;100866.69;5005293;28;20444;-62
2022/12/10 04:29:46;;;;;;;1.67;1.58;;;;;;;-2.80;100.00;100858.63;5006826;28;20117;-62
2022/12/10 04:32:11;;;;;;;1.30;1.30;;;;;;;-2.77;100.00;100861.03;5008954;28;20041;-62
2022/12/10 04:34:37;;;;;;;1.70;1.60;;;;;;;-2.76;100.00;100857.34;5011161;28;20030;-62
2022/12/10 04:37:03;;;;;;;1.67;1.58;;;;;;;-2.72;100.00;100863.28;5010740;28;20125;-62
2022/12/10 04:39:28;;;;;;;1.60;1.50;;;;;;;-2.69;100.00;100871.88;5011323;28;20105;-62
2022/12/10 04:41:54;;;;;;;2.45;1.70;;;;;;;-2.69;100.00;100869.19;5009358;28;20129;-62
2022/12/10 04:44:19;;;;;;;1.58;1.48;;;;;;;-2.69;100.00;100871.03;5011339;28;20037;-62
2022/12/10 04:46:45;;;;;;;1.58;1.48;;;;;;;-2.71;100.00;100867.66;5010737;28;20022;-61
2022/12/10 04:49:11;;;;;;;1.80;1.70;;;;;;;-2.69;100.00;100871.03;5010794;28;20060;-62
2022/12/10 04:51:36;;;;;;;1.80;1.67;;;;;;;-2.69;100.00;100874.56;5011368;28;20026;-62
2022/12/10 04:54:02;;;;;;;1.42;1.40;;;;;;;-2.68;100.00;100872.75;5011227;28;20475;-62
2022/12/10 04:56:27;;;;;;;1.70;1.60;;;;;;;-2.69;100.00;100869.19;4991823;28;20030;-61
2022/12/10 04:58:55;;;;;;;1.40;1.40;;;;;;;-2.64;100.00;100871.47;5010332;28;20024;-62
2022/12/10 05:01:20;;;;;;;1.92;1.70;;;;;;;-2.63;100.00;100883.94;4993456;28;20037;-63
2022/12/10 05:03:46;;;;;;;2.92;1.83;;;;;;;-2.63;100.00;100876.72;5010508;28;20071;-62
2022/12/10 05:06:13;;;;;;;1.80;1.70;;;;;;;-2.65;100.00;100873.31;5009585;28;20026;-62
2022/12/10 05:08:40;;;;;;;2.20;1.80;;;;;;;-2.67;100.00;100879.84;5011634;28;20025;-62
2022/12/10 05:11:16;;;;;;;2.40;1.88;;;;;;;-2.65;100.00;100873.31;5009926;28;20045;-62
2022/12/10 05:13:43;;;;;;;2.30;1.75;;;;;;;-2.68;100.00;100881.66;4996265;28;20038;-62
2022/12/10 05:16:15;;;;;;;4.70;2.40;;;;;;;-2.73;100.00;100881.25;5009054;28;20026;-61
2022/12/10 05:18:42;;;;;;;1.73;1.63;;;;;;;-2.70;100.00;100878.25;5008834;28;20459;-62
2022/12/10 05:21:12;;;;;;;1.60;1.50;;;;;;;-2.68;100.00;100878.13;5009454;28;20048;-61
2022/12/10 05:23:39;;;;;;;4.85;2.38;;;;;;;-2.69;100.00;100881.78;5011300;28;20030;-62
2022/12/10 05:26:07;;;;;;;3.65;2.10;;;;;;;-2.71;100.00;100879.25;5008695;28;20022;-62
2022/12/10 05:28:35;;;;;;;2.92;1.98;;;;;;;-2.70;100.00;100885.47;5010423;28;20076;-61
2022/12/10 05:31:01;;;;;;;2.95;1.88;;;;;;;-2.70;100.00;100875.56;5010640;28;20030;-61
2022/12/10 05:33:27;;;;;;;2.20;1.70;;;;;;;-2.69;100.00;100874.56;5009085;28;20041;-62
2022/12/10 05:36:00;;;;;;;2.22;1.90;;;;;;;-2.63;100.00;100875.88;5007525;28;20030;-62
2022/12/10 05:38:26;;;;;;;2.08;1.75;;;;;;;-2.67;100.00;100880.66;5010467;28;20491;-62
2022/12/10 05:40:51;;;;;;;2.60;2.03;;;;;;;-2.67;100.00;100879.84;5009227;28;20069;-62
2022/12/10 05:43:17;;;;;;;2.67;1.88;;;;;;;-2.65;100.00;100878.69;5009974;28;20088;-62
2022/12/10 05:45:42;;;;;;;2.40;2.00;;;;;;;-2.64;100.00;100876.84;5009496;28;20495;-61
2022/12/10 05:48:13;;;;;;;3.53;2.30;;;;;;;-2.67;100.00;100874.44;5009097;28;20050;-62
2022/12/10 05:50:39;;;;;;;2.53;2.00;;;;;;;-2.67;100.00;100880.66;5009143;28;20033;-62
2022/12/10 05:53:05;;;;;;;3.28;2.13;;;;;;;-2.65;100.00;100878.69;5010529;28;20105;-61
2022/12/10 05:55:32;;;;;;;1.70;1.60;;;;;;;-2.64;100.00;100882.22;5008794;28;20029;-61
2022/12/10 05:57:58;;;;;;;2.43;1.87;;;;;;;-2.60;100.00;100883.63;5006241;28;20377;-62
2022/12/10 06:00:23;;;;;;;2.08;1.77;;;;;;;-2.62;100.00;100883.78;5009085;28;20304;-62
2022/12/10 06:02:49;;;;;;;2.28;1.80;;;;;;;-2.60;100.00;100886.31;5010152;28;20069;-62
2022/12/10 06:05:15;;;;;;;1.73;1.63;;;;;;;-2.61;100.00;100885.47;5009858;28;20022;-62
2022/12/10 06:07:41;;;;;;;2.35;1.70;;;;;;;-2.55;100.00;100892.09;5009310;28;20060;-62
2022/12/10 06:10:06;;;;;;;2.25;1.80;;;;;;;-2.57;100.00;100885.19;5009469;28;20021;-61
2022/12/10 06:12:32;;;;;;;4.38;2.10;;;;;;;-2.56;100.00;100887.72;5008152;28;20048;-62
2022/12/10 06:14:57;;;;;;;1.73;1.63;;;;;;;-2.57;100.00;100883.34;5008802;28;20095;-62
2022/12/10 06:17:22;;;;;;;2.20;1.80;;;;;;;-2.58;100.00;100878.13;5008555;28;20029;-62
2022/12/10 06:19:47;;;;;;;2.00;1.90;;;;;;;-2.57;100.00;100874.44;5010612;28;20044;-62
2022/12/10 06:22:13;;;;;;;1.90;1.80;;;;;;;-2.54;100.00;100876.81;5008915;28;20034;-62
2022/12/10 06:24:38;;;;;;;1.70;1.60;;;;;;;-2.53;100.00;100882.06;5008589;28;20274;-62
2022/12/10 06:27:05;;;;;;;1.70;1.60;;;;;;;-2.52;100.00;100890.97;5007494;28;20495;-62
2022/12/10 06:29:30;;;;;;;4.43;2.47;;;;;;;-2.55;100.00;100891.25;5007968;28;20061;-62
2022/12/10 06:31:55;;;;;;;3.55;2.10;;;;;;;-2.56;100.00;100903.00;5008359;28;20111;-62
2022/12/10 06:34:21;;;;;;;2.40;1.95;;;;;;;-2.61;100.00;100896.22;5009888;28;20513;-63
2022/12/10 06:36:46;;;;;;;2.53;1.92;;;;;;;-2.57;100.00;100895.94;5007813;28;20041;-61
2022/12/10 06:39:11;;;;;;;1.90;1.70;;;;;;;-2.64;100.00;100906.41;5007930;28;20022;-61
2022/12/10 06:41:36;;;;;;;3.65;2.08;;;;;;;-2.65;100.00;100896.66;5005069;28;20405;-62
2022/12/10 06:44:02;;;;;;;2.08;1.77;;;;;;;-2.67;100.00;100910.25;5008884;28;20403;-61
2022/12/10 06:46:28;;;;;;;2.17;1.80;;;;;;;-2.64;100.00;100909.94;5008420;28;20034;-61
2022/12/10 06:48:53;;;;;;;1.60;1.60;;;;;;;-2.62;100.00;100907.97;5009263;28;20389;-62
2022/12/10 06:51:19;;;;;;;2.10;1.90;;;;;;;-2.57;100.00;100912.06;5009476;28;20053;-62
2022/12/10 06:53:45;;;;;;;1.90;1.80;;;;;;;-2.52;100.00;100917.88;5007571;28;20033;-62
2022/12/10 06:56:13;;;;;;;4.97;2.60;;;;;;;-2.56;100.00;100913.78;5005458;28;20040;-62
2022/12/10 06:58:40;;;;;;;4.45;2.28;;;;;;;-2.57;100.00;100922.84;5009164;28;20029;-62
2022/12/10 07:01:21;;;;;;;2.90;2.00;;;;;;;-2.59;100.00;100917.56;5005395;28;20519;-62
2022/12/10 07:03:50;;;;;;;2.42;2.00;;;;;;;-2.60;100.00;100918.56;5009724;28;20044;-62
2022/12/10 07:06:15;;;;;;;4.43;2.13;;;;;;;-2.67;100.00;100912.94;5008381;28;20034;-61
2022/12/10 07:08:41;;;;;;;2.58;1.88;;;;;;;-2.65;100.00;100920.84;5004212;28;20121;-62
2022/12/10 07:11:09;;;;;;;4.43;2.42;;;;;;;-2.65;100.00;100920.84;5006858;28;20065;-62
2022/12/10 07:13:35;;;;;;;3.05;2.20;;;;;;;-2.63;100.00;100925.09;5008607;28;20032;-62
2022/12/10 07:16:00;;;;;;;1.95;1.85;;;;;;;-2.61;100.00;100919.56;5008575;28;20109;-62
2022/12/10 07:18:26;;;;;;;1.98;1.88;;;;;;;-2.61;100.00;100923.09;5008720;28;20105;-61
2022/12/10 07:20:51;;;;;;;1.90;1.80;;;;;;;-2.56;100.00;100916.47;5007259;28;20042;-63
2022/12/10 07:23:16;;;;;;;3.97;2.50;;;;;;;-2.54;100.00;100922.53;5009009;28;20044;-62
2022/12/10 07:25:42;;;;;;;2.60;1.90;;;;;;;-2.50;100.00;100921.25;5007834;28;20030;-62
2022/12/10 07:28:07;;;;;;;4.30;2.00;;;;;;;-2.50;100.00;100929.31;5006400;28;20101;-62
2022/12/10 07:30:33;;;;;;;1.95;1.85;;;;;;;-2.48;100.00;100927.34;5008208;28;20449;-62
2022/12/10 07:32:58;;;;;;;2.10;1.90;;;;;;;-2.47;100.00;100937.09;5006465;28;20030;-62
2022/12/10 07:35:24;;;;;;;2.17;1.98;;;;;;;-2.44;100.00;100937.66;5008736;28;20021;-62
2022/12/10 07:37:49;;;;;;;3.97;2.25;;;;;;;-2.44;100.00;100937.66;5008625;28;20093;-62
2022/12/10 07:40:14;;;;;;;4.20;2.30;;;;;;;-2.44;100.00;100942.19;5006245;28;20038;-62
2022/12/10 07:42:40;;;;;;;3.97;2.17;;;;;;;-2.47;100.00;100939.78;5008878;28;20061;-62
2022/12/10 07:45:05;;;;;;;3.92;2.05;;;;;;;-2.51;100.00;100947.28;5007564;28;20488;-62
2022/12/10 07:47:31;;;;;;;5.80;2.53;;;;;;;-2.42;100.00;100949.13;4989746;28;20037;-61
2022/12/10 07:49:56;;;;;;;3.10;2.10;;;;;;;-2.51;100.00;100943.75;5007044;28;20496;-62
2022/12/10 07:52:21;;;;;;;1.95;1.83;;;;;;;-2.51;100.00;100952.66;5008008;28;20117;-62
2022/12/10 07:54:46;;;;;;;1.92;1.73;;;;;;;-2.49;100.00;100941.75;5007297;28;20022;-62
2022/12/10 07:57:12;;;;;;;2.15;1.95;;;;;;;-2.43;100.00;100954.66;5007894;28;20022;-62
2022/12/10 07:59:37;;;;;;;1.83;1.73;;;;;;;-2.40;100.00;100955.19;5007657;28;20052;-62
2022/12/10 08:02:02;;;;;;;2.00;1.90;;;;;;;-2.35;100.00;100957.47;5007464;28;20038;-62
2022/12/10 08:04:29;;;;;;;3.47;2.17;;;;;;;-2.31;100.00;100958.03;5008752;28;20030;-61
2022/12/10 08:06:55;;;;;;;2.08;1.83;;;;;;;-2.31;100.00;100966.94;5006595;28;20064;-62
2022/12/10 08:09:20;;;;;;;2.40;1.85;;;;;;;-2.31;100.00;100964.25;5011866;28;20065;-63
2022/12/10 08:11:46;;;;;;;2.08;1.98;;;;;;;-2.28;100.00;100969.34;5011265;28;20058;-67
2022/12/10 08:14:11;;;;;;;2.58;1.90;;;;;;;-2.25;100.00;100966.34;5011534;28;20052;-62
2022/12/10 08:16:36;;;;;;;2.03;1.88;;;;;;;-2.24;100.00;100978.81;5012380;28;20030;-61
2022/12/10 08:19:02;;;;;;;4.05;2.00;;;;;;;-2.25;100.00;100970.88;5010995;28;20040;-62
2022/12/10 08:21:30;;;;;;;4.03;2.08;;;;;;;-2.23;100.00;100977.84;5020584;28;20346;-62
2022/12/10 08:23:55;;;;;;;4.03;2.25;;;;;;;-2.26;100.00;100979.97;5014817;28;20025;-62
2022/12/10 08:26:24;;;;;;;4.45;2.40;;;;;;;-2.29;100.00;100986.47;5010180;28;20052;-62
2022/12/10 08:28:50;;;;;;;6.47;2.67;;;;;;;-2.31;100.00;100991.16;5009936;28;20113;-62
2022/12/10 08:31:18;;;;;;;5.25;2.50;;;;;;;-2.33;100.00;100987.75;5011979;28;20041;-62
2022/12/10 08:33:43;;;;;;;5.95;2.65;;;;;;;-2.32;100.00;100985.94;5011976;28;20029;-62
2022/12/10 08:36:11;;;;;;;2.10;1.90;;;;;;;-2.29;100.00;100996.38;5011139;28;20034;-62
2022/12/10 08:38:36;;;;;;;;;;;;;;;-2.22;100.00;101002.91;5010545;28;20062;-62
2022/12/10 08:41:22;;;;;;;2.00;1.80;;;;;;;-2.25;100.00;101004.00;5010658;28;20407;-62
2022/12/10 08:43:50;;;;;;;5.72;2.10;;;;;;;-2.22;100.00;100992.97;5010458;28;20050;-62
2022/12/10 08:46:16;;;;;;;1.90;1.80;;;;;;;-2.19;100.00;100995.38;5012120;28;20032;-62
2022/12/10 08:48:42;;;;;;;2.15;1.92;;;;;;;-2.15;100.00;101002.16;5010592;28;20042;-62
2022/12/10 08:51:08;;;;;;;2.20;2.00;;;;;;;-2.13;100.00;100997.50;5011043;28;20065;-62
2022/12/10 08:53:34;;;;;;;2.67;1.80;;;;;;;-2.11;100.00;101006.25;5008735;28;20035;-61
2022/12/10 08:55:59;;;;;;;4.80;2.17;;;;;;;-2.09;100.00;100998.03;5010400;28;20411;-62
2022/12/10 08:58:24;;;;;;;6.47;3.00;;;;;;;-2.11;100.00;100997.34;5007324;28;20038;-62
2022/12/10 09:00:50;;;;;;;4.78;2.30;;;;;;;-2.13;100.00;100999.31;5010063;28;20030;-62
2022/12/10 09:03:15;;;;;;;3.17;2.00;;;;;;;-2.10;100.00;100999.88;5009281;28;20037;-62
2022/12/10 09:05:41;;;;;;;1.90;1.80;;;;;;;-2.04;100.00;101000.28;5009826;28;20030;-62
2022/12/10 09:08:06;;;;;;;1.95;1.85;;;;;;;-2.02;100.00;101003.72;5009528;28;20460;-62
2022/12/10 09:10:31;;;;;;;4.57;2.30;;;;;;;-2.00;100.00;101005.25;5010381;28;20034;-62
2022/12/10 09:12:57;;;;;;;5.82;2.30;;;;;;;-1.97;100.00;101013.03;5009963;28;20100;-62
2022/12/10 09:15:22;;;;;;;4.18;2.20;;;;;;;-2.01;100.00;101008.09;5010941;28;20489;-63
2022/12/10 09:17:47;;;;;;;1.98;1.73;;;;;;;-2.01;100.00;101010.78;5010089;28;20556;-62
2022/12/10 09:20:12;;;;;;;4.15;2.22;;;;;;;-2.03;100.00;101010.91;5010068;28;20160;-62
2022/12/10 09:22:38;;;;;;;4.15;2.00;;;;;;;-2.01;100.00;101019.69;5011115;28;20105;-62
2022/12/10 09:25:06;;;;;;;3.38;1.98;;;;;;;-1.99;100.00;101015.00;5009739;28;20022;-62
2022/12/10 09:27:32;;;;;;;5.18;2.25;;;;;;;-1.93;100.00;101025.19;5008387;28;20030;-62
2022/12/10 09:29:57;;;;;;;5.50;2.22;;;;;;;-1.91;100.00;101030.44;5008182;28;20037;-62
2022/12/10 09:32:22;;;;;;;2.20;2.00;;;;;;;-1.91;100.00;101022.38;5009668;28;20374;-62
2022/12/10 09:34:51;;;;;;;4.82;2.42;;;;;;;-1.92;100.00;101031.44;5011264;28;20022;-62
2022/12/10 09:37:16;;;;;;;3.03;1.98;;;;;;;-1.89;100.00;101036.53;5011023;28;20033;-62
2022/12/10 09:39:42;;;;;;;2.45;1.77;;;;;;;-1.86;100.00;101038.94;5010466;28;20602;-62
2022/12/10 09:42:29;;;;;;;2.10;1.90;;;;;;;-1.80;100.00;101043.72;5009183;28;20388;-62
2022/12/10 09:44:57;;;;;;;4.53;2.28;;;;;;;-1.78;100.00;101039.03;5010054;28;20030;-62
2022/12/10 09:47:54;;;;;;;6.00;2.38;;;;;;;-1.76;100.00;101038.91;5010852;28;20034;-63
2022/12/10 09:50:31;;;;;;;3.85;2.15;;;;;;;-1.78;100.00;101040.88;5004207;28;20515;-62
2022/12/10 09:52:59;;;;;;;2.38;2.05;;;;;;;-1.80;100.00;101038.34;5008335;28;20089;-62
2022/12/10 09:55:40;;;;;;;1.98;1.83;;;;;;;-1.78;100.00;101033.66;5009757;28;20053;-62
2022/12/10 09:58:13;;;;;;;2.15;1.73;;;;;;;-1.78;100.00;101033.66;5009051;28;20030;-62
2022/12/10 10:00:41;;;;;;;2.22;1.90;;;;;;;-1.76;100.00;101034.38;5010018;28;20116;-62
2022/12/10 10:03:12;;;;;;;3.13;1.88;;;;;;;-1.73;100.00;101041.28;5009353;28;20077;-62
2022/12/10 10:05:48;;;;;;;2.00;1.90;;;;;;;-1.71;100.00;101053.63;5010267;28;20611;-62
2022/12/10 10:08:23;;;;;;;3.88;2.10;;;;;;;-1.66;100.00;101050.50;5009742;28;20026;-62
2022/12/10 10:10:49;;;;;;;2.00;1.90;;;;;;;-1.66;100.00;101051.34;5010099;28;20045;-62
2022/12/10 10:13:28;;;;;;;2.22;1.98;;;;;;;-1.62;100.00;101044.69;5008260;28;20030;-62
2022/12/10 10:15:54;;;;;;;2.00;1.88;;;;;;;-1.59;100.00;101055.13;5009525;28;20116;-62
2022/12/10 10:18:28;;;;;;;1.90;1.80;;;;;;;-1.55;100.00;101054.84;5010359;28;20101;-62
2022/12/10 10:20:55;;;;;;;1.90;1.80;;;;;;;-1.52;100.00;101059.94;5008014;28;20608;-62
2022/12/10 10:23:20;;;;;;;2.00;1.90;;;;;;;-1.50;100.00;101052.56;5010370;28;20026;-63
2022/12/10 10:25:45;;;;;;;1.90;1.80;;;;;;;-1.48;100.00;101062.19;5007998;28;20042;-62
2022/12/10 10:28:16;;;;;;;2.35;2.00;;;;;;;-1.45;100.00;101058.38;5007224;28;20038;-62
2022/12/10 10:30:44;;;;;;;1.80;1.70;;;;;;;-1.46;100.00;101048.59;5008541;28;20172;-62
2022/12/10 10:33:11;;;;;;;2.00;1.80;;;;;;;-1.45;100.00;101047.59;5009607;28;20034;-62
2022/12/10 10:35:45;;;;;;;3.05;1.80;;;;;;;-1.48;100.00;101051.41;5007534;28;20092;-62
2022/12/10 10:38:19;;;;;;;1.73;1.63;;;;;;;-1.48;100.00;101050.56;5008453;28;20049;-62
2022/12/10 10:40:48;;;;;;;1.80;1.70;;;;;;;-1.47;100.00;101060.34;5008711;28;20041;-62
2022/12/10 10:43:24;;;;;;;2.10;1.90;;;;;;;-1.47;100.00;101058.53;5007904;28;20032;-62
2022/12/10 10:46:04;;;;;;;2.63;1.90;;;;;;;-1.47;100.00;101052.25;5008291;28;20109;-62
2022/12/10 10:48:30;;;;;;;2.05;1.80;;;;;;;-1.46;100.00;101053.97;5008015;28;20056;-62
2022/12/10 10:51:06;;;;;;;2.10;1.92;;;;;;;-1.44;100.00;101043.91;5008382;28;20030;-62
2022/12/10 10:53:52;;;;;;;2.13;2.00;;;;;;;-1.40;100.00;101039.91;5009189;28;20030;-62
2022/12/10 10:56:40;;;;;;;1.90;1.80;;;;;;;-1.40;100.00;101038.06;5009000;28;20030;-62
2022/12/10 10:59:28;;;;;;;2.58;2.08;;;;;;;-1.40;100.00;101038.06;5007740;28;20050;-62
2022/12/10 11:02:35;;;;;;;2.00;1.90;;;;;;;-1.32;100.00;101035.50;4996032;28;20034;-63
2022/12/10 11:05:23;;;;;;;1.90;1.80;;;;;;;-1.25;100.00;101038.41;5007736;28;20748;-62
2022/12/10 11:07:56;;;;;;;2.22;1.88;;;;;;;-1.33;100.00;101032.91;5009707;28;20021;-62
2022/12/10 11:10:24;;;;;;;2.25;1.80;;;;;;;-1.38;100.00;101036.06;5007673;28;20433;-63
2022/12/10 11:13:01;;;;;;;1.88;1.70;;;;;;;-1.37;100.00;101037.78;5008676;28;20034;-62
2022/12/10 11:15:35;;;;;;;2.03;1.92;;;;;;;-1.37;100.00;101028.81;5008486;28;20505;-63
2022/12/10 11:18:02;;;;;;;1.98;1.88;;;;;;;-1.38;100.00;101029.81;5008069;28;20029;-63
2022/12/10 11:20:34;;;;;;;2.10;1.90;;;;;;;-1.34;100.00;101036.63;5007321;28;20029;-63
2022/12/10 11:23:07;;;;;;;2.00;1.90;;;;;;;-1.30;100.00;101032.63;4991006;28;20497;-62
2022/12/10 11:25:57;;;;;;;1.90;1.80;;;;;;;-1.30;100.00;101038.03;5004540;28;20018;-62
2022/12/10 11:28:53;;;;;;;1.95;1.80;;;;;;;-1.25;100.00;101038.41;4998195;28;20112;-62
2022/12/10 11:31:21;;;;;;;2.05;1.88;;;;;;;-1.25;100.00;101037.56;4989147;28;20042;-61
2022/12/10 11:33:57;;;;;;;2.10;2.00;;;;;;;-1.23;100.00;101031.03;5007470;28;20088;-61